Time;durP1;ratioP1;P1;durP2;ratioP2;P2;SDS_P1;SDS_P2;PMS_P1;PMS_P2;Temp;Humidity;BMP_temperature;BMP_pressure;BME280_temperature;BME280_humidity;BME280_pressure;Samples;Min_cycle;Max_cycle;Signal;HPM_P1;HPM_P2
2024/04/22 00:03:25;;;;;;;12.35;8.57;;;17.80;65.60;;;;;;11207520;26;20000;-23
2024/04/22 00:08:31;;;;;;;13.38;9.35;;;17.80;65.60;;;;;;11207012;26;19999;-26
2024/04/22 00:13:34;;;;;;;13.55;8.93;;;17.80;65.50;;;;;;11206461;26;20018;-25
2024/04/22 00:18:38;;;;;;;13.65;9.07;;;17.80;65.40;;;;;;11210323;26;20014;-26
2024/04/22 00:23:43;;;;;;;13.35;8.82;;;17.70;65.50;;;;;;11213786;26;20000;-27
2024/04/22 00:28:47;;;;;;;13.50;8.88;;;17.70;65.60;;;;;;11213702;26;20012;-28
2024/04/22 00:33:52;;;;;;;13.73;9.18;;;17.70;65.60;;;;;;11213570;26;19995;-26
2024/04/22 00:38:58;;;;;;;13.90;9.63;;;17.70;65.20;;;;;;11213780;26;20031;-24
2024/04/22 00:44:01;;;;;;;15.90;9.95;;;17.60;65.30;;;;;;11213238;26;20010;-26
2024/04/22 00:49:04;;;;;;;16.23;9.73;;;17.60;65.30;;;;;;11213198;26;20015;-27
2024/04/22 00:54:10;;;;;;;16.30;9.93;;;17.60;65.10;;;;;;11212570;26;19996;-27
2024/04/22 00:59:14;;;;;;;13.75;9.30;;;17.50;65.00;;;;;;11212770;26;20000;-26
2024/04/22 01:04:17;;;;;;;14.95;9.82;;;17.50;65.20;;;;;;11212597;26;20361;-26
2024/04/22 01:09:23;;;;;;;15.63;9.63;;;17.50;65.20;;;;;;11212208;26;20373;-25
2024/04/22 01:14:26;;;;;;;15.00;9.82;;;17.50;65.30;;;;;;11212380;26;20073;-25
2024/04/22 01:19:30;;;;;;;15.73;9.45;;;17.40;65.20;;;;;;11212236;26;19999;-26
2024/04/22 01:24:36;;;;;;;17.00;10.73;;;17.40;65.10;;;;;;11211702;26;20515;-25
2024/04/22 01:29:39;;;;;;;16.50;10.35;;;17.40;65.00;;;;;;11211667;26;20082;-26
2024/04/22 01:34:42;;;;;;;16.60;10.55;;;17.40;65.00;;;;;;11212270;26;19996;-27
2024/04/22 01:39:48;;;;;;;16.35;9.82;;;17.40;65.00;;;;;;11211676;26;20004;-26
2024/04/22 01:44:52;;;;;;;16.60;10.73;;;17.40;64.90;;;;;;11211608;26;19996;-27
2024/04/22 01:49:55;;;;;;;15.07;10.23;;;17.30;65.10;;;;;;11211523;26;20357;-27
2024/04/22 01:55:10;;;;;;;15.75;10.75;;;17.30;65.00;;;;;;11217054;26;20003;-23
2024/04/22 02:00:14;;;;;;;18.00;11.70;;;17.20;65.10;;;;;;11222663;26;20037;-28
2024/04/22 02:05:17;;;;;;;15.18;10.45;;;17.20;65.00;;;;;;11210572;26;20000;-27
2024/04/22 02:10:23;;;;;;;15.43;10.20;;;17.20;65.00;;;;;;11211137;26;19999;-27
2024/04/22 02:15:26;;;;;;;15.45;10.65;;;17.20;65.00;;;;;;11275373;26;20002;-28
2024/04/22 02:20:30;;;;;;;16.90;11.00;;;17.10;65.00;;;;;;11284504;26;19998;-26
2024/04/22 02:25:35;;;;;;;17.83;11.20;;;17.10;64.90;;;;;;11284643;26;20072;-25
2024/04/22 02:30:39;;;;;;;15.88;10.27;;;17.10;64.80;;;;;;11284578;26;20011;-26
2024/04/22 02:35:42;;;;;;;18.77;10.40;;;17.10;64.50;;;;;;11284091;26;20397;-27
2024/04/22 02:40:49;;;;;;;15.50;10.20;;;17.00;64.70;;;;;;11226519;26;19999;-26
2024/04/22 02:45:55;;;;;;;15.63;10.73;;;17.10;64.80;;;;;;11209810;26;20003;-27
2024/04/22 02:51:05;;;;;;;17.02;10.52;;;17.00;64.70;;;;;;11209470;26;20011;-27
2024/04/22 02:56:13;;;;;;;16.35;10.68;;;17.00;64.50;;;;;;11209369;26;20003;-26
2024/04/22 03:01:17;;;;;;;14.10;9.50;;;17.00;64.30;;;;;;11209193;26;19996;-27
2024/04/22 03:06:20;;;;;;;13.95;9.88;;;17.00;64.60;;;;;;11208669;26;20004;-25
2024/04/22 03:11:26;;;;;;;16.60;10.63;;;16.90;65.00;;;;;;11208975;26;20076;-29
2024/04/22 03:16:29;;;;;;;16.05;10.10;;;17.10;64.30;;;;;;11209091;26;20011;-24
2024/04/22 03:21:32;;;;;;;16.92;10.52;;;17.10;63.60;;;;;;11208499;26;20000;-25
2024/04/22 03:26:38;;;;;;;16.52;10.25;;;17.20;63.00;;;;;;11208406;26;20008;-26
2024/04/22 03:31:41;;;;;;;13.98;9.10;;;17.30;63.50;;;;;;11208388;26;20007;-26
2024/04/22 03:36:45;;;;;;;14.98;8.63;;;17.30;62.60;;;;;;11208043;26;20019;-25
2024/04/22 03:41:50;;;;;;;15.15;9.23;;;17.40;62.30;;;;;;11207830;26;20000;-27
2024/04/22 03:52:13;;;;;;;13.73;8.40;;;17.50;62.00;;;;;;11216737;26;20412;-26
2024/04/22 03:57:19;;;;;;;12.10;7.80;;;17.50;61.80;;;;;;11214772;26;20007;-26
2024/04/22 04:02:22;;;;;;;10.43;7.55;;;17.50;61.90;;;;;;11214220;26;20077;-25
2024/04/22 04:07:26;;;;;;;11.75;7.40;;;17.40;61.80;;;;;;11214888;26;20080;-27
2024/04/22 04:12:31;;;;;;;10.93;7.07;;;17.50;61.90;;;;;;11214341;26;20011;-27
2024/04/22 04:17:35;;;;;;;10.35;6.72;;;17.70;61.60;;;;;;11213922;26;20031;-25
2024/04/22 04:22:38;;;;;;;9.40;7.18;;;18.00;61.40;;;;;;11213922;26;20470;-26
2024/04/22 04:27:44;;;;;;;8.38;6.10;;;18.20;61.10;;;;;;11213586;26;20008;-26
2024/04/22 04:32:47;;;;;;;9.82;6.68;;;18.60;60.60;;;;;;11213770;26;20014;-26
2024/04/22 04:37:51;;;;;;;26.67;12.68;;;18.80;60.50;;;;;;11213699;26;19999;-26
2024/04/22 04:42:57;;;;;;;47.75;18.67;;;18.90;63.20;;;;;;11213138;26;19999;-28
2024/04/22 04:48:00;;;;;;;41.10;17.17;;;19.10;63.10;;;;;;11209542;26;19996;-28
2024/04/22 04:53:03;;;;;;;31.45;14.02;;;19.10;61.60;;;;;;11212617;26;20393;-27
2024/04/22 04:58:09;;;;;;;28.80;12.23;;;19.30;59.80;;;;;;11212997;26;20462;-25
2024/04/22 05:03:13;;;;;;;20.23;9.57;;;19.60;58.40;;;;;;11212009;26;20004;-27
2024/04/22 05:08:16;;;;;;;18.02;7.72;;;19.60;57.40;;;;;;11212691;26;20465;-27
2024/04/22 05:13:22;;;;;;;13.95;7.20;;;19.80;57.10;;;;;;11212528;26;20000;-25
2024/04/22 05:18:25;;;;;;;11.65;5.40;;;19.90;55.30;;;;;;11212387;26;20012;-26
2024/04/22 05:23:29;;;;;;;13.48;5.03;;;19.60;54.10;;;;;;11212190;26;20346;-27
2024/04/22 05:28:35;;;;;;;17.75;4.43;;;19.60;53.90;;;;;;11212023;26;20427;-27
2024/04/22 05:38:58;;;;;;;10.98;4.13;;;19.70;54.10;;;;;;11217023;26;20015;-25
2024/04/22 05:44:05;;;;;;;43.92;7.25;;;19.80;54.40;;;;;;11211505;26;20450;-27
2024/04/22 05:49:08;;;;;;;21.30;5.90;;;19.80;55.70;;;;;;11212133;26;20018;-27
2024/04/22 05:54:11;;;;;;;20.90;5.70;;;19.70;56.00;;;;;;11211262;26;20008;-26
2024/04/22 05:59:18;;;;;;;23.85;5.13;;;19.60;55.70;;;;;;11216912;26;20361;-24
2024/04/22 06:04:21;;;;;;;17.55;4.70;;;19.40;54.00;;;;;;11283726;26;20480;-26
2024/04/22 06:09:24;;;;;;;18.27;4.00;;;19.30;55.00;;;;;;11285048;26;20011;-26
2024/04/22 06:14:30;;;;;;;12.63;3.70;;;19.30;55.10;;;;;;11283358;26;20006;-28
2024/04/22 06:19:34;;;;;;;8.15;2.97;;;19.20;55.20;;;;;;11284974;26;20002;-27
2024/04/22 06:24:37;;;;;;;9.23;3.33;;;19.10;55.20;;;;;;11284733;26;20017;-28
2024/04/22 06:29:43;;;;;;;8.13;2.75;;;19.00;55.10;;;;;;11284527;26;20013;-29
2024/04/22 06:34:46;;;;;;;8.77;2.65;;;19.00;54.90;;;;;;11284629;26;20412;-32
2024/04/22 06:39:49;;;;;;;6.55;2.30;;;19.00;54.80;;;;;;11284794;26;20007;-30
2024/04/22 06:44:55;;;;;;;4.05;1.90;;;19.00;53.60;;;;;;11284188;26;20011;-29
2024/04/22 06:49:58;;;;;;;4.93;2.33;;;18.90;52.20;;;;;;11284111;26;20591;-26
2024/04/22 06:55:02;;;;;;;18.75;2.35;;;18.90;52.20;;;;;;11283680;26;20003;-28
2024/04/22 07:00:09;;;;;;;9.93;1.85;;;19.10;53.00;;;;;;11283330;26;20013;-27
2024/04/22 07:05:12;;;;;;;8.45;1.85;;;19.10;51.70;;;;;;11283352;26;19999;-27
2024/04/22 07:10:15;;;;;;;3.17;1.33;;;19.00;52.80;;;;;;11283027;26;20068;-26
2024/04/22 07:15:21;;;;;;;8.98;1.45;;;18.80;47.30;;;;;;11283023;26;20013;-28
2024/04/22 07:20:24;;;;;;;2.22;1.10;;;18.70;47.70;;;;;;11283102;26;20075;-28
2024/04/22 07:25:27;;;;;;;2.28;1.13;;;18.60;48.20;;;;;;11282649;26;19995;-27
2024/04/22 07:30:34;;;;;;;2.97;1.15;;;18.50;45.30;;;;;;11282964;26;20014;-27
2024/04/22 07:35:38;;;;;;;1.90;1.10;;;18.50;44.70;;;;;;11282506;26;20031;-28
2024/04/22 07:40:43;;;;;;;3.47;1.20;;;18.40;44.70;;;;;;11281967;26;20385;-27
2024/04/22 07:45:49;;;;;;;2.83;1.00;;;18.40;45.20;;;;;;11281594;26;20006;-26
2024/04/22 07:50:52;;;;;;;2.88;0.90;;;18.40;45.20;;;;;;11280271;26;20461;-27
2024/04/22 07:55:56;;;;;;;3.63;0.85;;;18.40;43.70;;;;;;11281658;26;19999;-28
2024/04/22 08:01:02;;;;;;;3.33;0.90;;;18.40;45.10;;;;;;11281357;26;20461;-27
2024/04/22 08:06:07;;;;;;;1.67;1.00;;;18.30;41.50;;;;;;11280161;26;20006;-27
2024/04/22 08:11:10;;;;;;;2.15;0.90;;;18.30;41.30;;;;;;11280250;26;20385;-28
2024/04/22 08:16:16;;;;;;;1.73;1.17;;;18.30;39.80;;;;;;11280507;26;20030;-28
2024/04/22 08:21:19;;;;;;;2.03;0.77;;;18.30;39.40;;;;;;11232466;26;20025;-28
2024/04/22 08:26:22;;;;;;;2.75;1.20;;;18.20;39.40;;;;;;11206163;26;20004;-27
2024/04/22 08:31:28;;;;;;;3.67;0.93;;;18.30;40.70;;;;;;11205869;26;20000;-28
2024/04/22 08:36:31;;;;;;;2.58;0.90;;;18.30;39.40;;;;;;11205707;26;20010;-29
2024/04/22 08:41:37;;;;;;;2.22;0.90;;;18.40;41.10;;;;;;11212436;26;20000;-29
2024/04/22 08:46:43;;;;;;;3.10;0.98;;;18.40;39.40;;;;;;11212816;26;20014;-30
2024/04/22 08:51:46;;;;;;;2.30;0.88;;;18.40;39.10;;;;;;11212979;26;20015;-27
2024/04/22 08:56:50;;;;;;;2.00;0.82;;;18.40;39.70;;;;;;11212484;26;19995;-29
2024/04/22 09:02:03;;;;;;;2.47;1.00;;;18.40;38.90;;;;;;11212577;26;19999;-28
2024/04/22 09:07:07;;;;;;;1.52;0.90;;;18.40;40.70;;;;;;11211286;26;20011;-30
2024/04/22 09:12:15;;;;;;;4.10;0.90;;;18.50;41.10;;;;;;11209249;26;20003;-27
2024/04/22 09:17:21;;;;;;;3.00;1.00;;;18.60;40.50;;;;;;11212098;26;20076;-28
2024/04/22 09:22:24;;;;;;;3.13;0.88;;;18.60;39.80;;;;;;11210660;26;19996;-32
2024/04/22 09:27:28;;;;;;;3.60;0.93;;;18.70;41.20;;;;;;11210789;26;20007;-28
2024/04/22 09:32:36;;;;;;;2.25;0.90;;;18.70;40.60;;;;;;11211841;26;20014;-27
2024/04/22 09:37:39;;;;;;;3.90;1.00;;;18.80;41.20;;;;;;11211179;26;20403;-28
2024/04/22 09:42:42;;;;;;;6.38;1.20;;;18.90;41.00;;;;;;11209920;26;20007;-24
2024/04/22 09:47:48;;;;;;;3.72;1.10;;;19.00;39.50;;;;;;11211251;26;20403;-27
2024/04/22 09:52:52;;;;;;;2.58;1.00;;;19.00;38.20;;;;;;11210905;26;19999;-28
2024/04/22 09:57:58;;;;;;;1.98;1.02;;;19.10;40.60;;;;;;11210232;26;20339;-28
2024/04/22 10:03:04;;;;;;;1.25;0.82;;;19.10;40.60;;;;;;11210438;26;20015;-27
2024/04/22 10:08:09;;;;;;;1.63;1.00;;;19.10;40.80;;;;;;11210569;26;20007;-27
2024/04/22 10:13:14;;;;;;;3.13;1.02;;;19.10;41.70;;;;;;11210520;26;20010;-29
2024/04/22 10:18:21;;;;;;;4.10;1.20;;;19.10;42.10;;;;;;11210303;26;20011;-29
2024/04/22 10:23:25;;;;;;;2.25;0.90;;;19.20;40.60;;;;;;11210058;26;20465;-32
2024/04/22 10:28:28;;;;;;;2.83;0.85;;;19.20;42.30;;;;;;11208939;26;20013;-28
2024/04/22 10:33:34;;;;;;;6.55;1.30;;;19.20;42.00;;;;;;11209689;26;20000;-34
2024/04/22 10:38:38;;;;;;;2.67;1.10;;;19.20;41.60;;;;;;11209918;26;20048;-29
2024/04/22 10:43:42;;;;;;;6.55;1.27;;;19.20;41.80;;;;;;11209202;26;20357;-27
2024/04/22 10:48:47;;;;;;;2.33;1.00;;;19.10;42.30;;;;;;11208789;26;20090;-28
2024/04/22 10:53:54;;;;;;;3.55;1.10;;;19.20;41.70;;;;;;11209248;26;19999;-29
2024/04/22 10:58:57;;;;;;;3.40;1.20;;;19.20;40.50;;;;;;11209304;26;19999;-28
2024/04/22 11:04:03;;;;;;;17.08;1.98;;;19.20;42.00;;;;;;11207456;26;20014;-27
2024/04/22 11:09:06;;;;;;;53.25;4.15;;;19.20;44.00;;;;;;11204272;26;20015;-29
2024/04/22 11:14:09;;;;;;;45.63;4.15;;;19.10;44.20;;;;;;11233588;26;19999;-29
2024/04/22 11:19:15;;;;;;;26.92;2.90;;;19.10;44.90;;;;;;11278865;26;20006;-26
2024/04/22 11:24:19;;;;;;;21.25;2.72;;;19.20;47.60;;;;;;11222011;26;20076;-26
2024/04/22 11:29:22;;;;;;;23.65;2.78;;;19.30;49.60;;;;;;11208520;26;20435;-29
2024/04/22 11:34:28;;;;;;;18.60;2.55;;;19.40;50.90;;;;;;11207512;26;20010;-28
2024/04/22 11:39:31;;;;;;;14.35;2.47;;;19.50;51.50;;;;;;11206223;26;20008;-24
2024/04/22 11:44:34;;;;;;;18.70;2.40;;;19.70;52.10;;;;;;11207374;26;19996;-27
2024/04/22 11:49:40;;;;;;;11.38;1.85;;;19.70;52.70;;;;;;11207253;26;20015;-29
2024/04/22 11:54:44;;;;;;;14.35;2.30;;;19.90;53.00;;;;;;11206608;26;20007;-30
2024/04/22 11:59:47;;;;;;;6.05;1.40;;;19.90;53.40;;;;;;11207208;26;20000;-26
2024/04/22 12:04:54;;;;;;;8.52;1.90;;;19.90;53.90;;;;;;11206523;26;20007;-27
2024/04/22 12:09:57;;;;;;;9.48;1.98;;;19.90;54.50;;;;;;11206912;26;20400;-25
2024/04/22 12:15:00;;;;;;;11.52;1.67;;;20.00;54.90;;;;;;11211092;26;20003;-29
2024/04/22 12:20:07;;;;;;;4.32;1.27;;;20.00;54.80;;;;;;11214588;26;20000;-22
2024/04/22 12:25:10;;;;;;;10.95;1.80;;;20.00;55.40;;;;;;11212742;26;20007;-27
2024/04/22 12:30:13;;;;;;;7.38;1.63;;;20.00;55.70;;;;;;11213709;26;20015;-27
2024/04/22 12:35:19;;;;;;;11.00;1.80;;;20.00;55.90;;;;;;11212244;26;19996;-27
2024/04/22 12:40:22;;;;;;;14.85;1.85;;;20.10;55.30;;;;;;11212581;26;20012;-31
2024/04/22 12:45:26;;;;;;;8.18;1.60;;;19.90;51.20;;;;;;11221261;26;20000;-30
2024/04/22 12:50:48;;;;;;;14.20;2.13;;;19.60;48.00;;;;;;11219501;26;20079;-28
2024/04/22 12:55:51;;;;;;;;;;;19.60;48.60;;;;;;11287930;26;20015;-28
2024/04/22 13:00:54;;;;;;;4.55;1.60;;;19.60;47.00;;;;;;11287388;26;20258;-30
2024/04/22 13:06:01;;;;;;;9.60;1.50;;;19.70;45.40;;;;;;11287366;26;20006;-29
2024/04/22 13:11:04;;;;;;;3.92;1.40;;;19.70;45.10;;;;;;11287102;26;20010;-31
2024/04/22 13:16:08;;;;;;;11.07;1.42;;;19.90;45.20;;;;;;11217070;26;20076;-32
2024/04/22 13:21:14;;;;;;;9.07;1.70;;;20.10;47.30;;;;;;11211009;26;20004;-29
2024/04/22 13:26:17;;;;;;;12.27;1.83;;;20.50;44.50;;;;;;11210721;26;20018;-27
2024/04/22 13:31:20;;;;;;;13.05;2.42;;;20.50;44.30;;;;;;11210813;26;20469;-26
2024/04/22 13:36:26;;;;;;;12.65;2.03;;;20.40;41.10;;;;;;11210745;26;20003;-26
2024/04/22 13:41:30;;;;;;;9.35;1.70;;;20.60;43.90;;;;;;11210610;26;20396;-28
2024/04/22 13:46:34;;;;;;;8.15;1.40;;;20.80;44.70;;;;;;11211034;26;20003;-28
2024/04/22 13:51:40;;;;;;;11.63;1.58;;;21.00;45.70;;;;;;11210239;26;20012;-29
2024/04/22 13:56:43;;;;;;;10.27;1.98;;;21.20;47.10;;;;;;11211009;26;20009;-28
2024/04/22 14:01:46;;;;;;;17.40;1.90;;;21.20;47.90;;;;;;11209715;26;20072;-26
2024/04/22 14:06:52;;;;;;;10.90;2.20;;;21.40;47.80;;;;;;11210755;26;20014;-28
2024/04/22 14:11:55;;;;;;;6.05;1.90;;;21.40;48.10;;;;;;11209832;26;20466;-27
2024/04/22 14:16:59;;;;;;;4.35;1.65;;;21.10;42.50;;;;;;11210645;26;20004;-29
2024/04/22 14:22:05;;;;;;;4.32;1.55;;;20.90;43.90;;;;;;11219787;26;20006;-31
2024/04/22 14:27:09;;;;;;;5.05;1.50;;;20.90;44.60;;;;;;11238310;26;20385;-33
2024/04/22 14:32:12;;;;;;;14.35;2.05;;;20.90;45.40;;;;;;11279926;26;20014;-28
2024/04/22 14:37:18;;;;;;;19.38;2.08;;;20.90;45.20;;;;;;11280373;26;20085;-27
2024/04/22 14:42:21;;;;;;;7.70;1.50;;;21.00;45.30;;;;;;11284330;26;20009;-28
2024/04/22 14:47:24;;;;;;;6.55;1.30;;;20.80;41.10;;;;;;11284283;26;19999;-27
2024/04/22 14:52:30;;;;;;;5.75;1.40;;;20.50;39.30;;;;;;11284143;26;20013;-27
2024/04/22 14:57:33;;;;;;;8.40;1.33;;;20.60;41.00;;;;;;11283702;26;20009;-29
2024/04/22 15:02:37;;;;;;;11.70;1.75;;;20.80;44.00;;;;;;11283249;26;20014;-27
2024/04/22 15:07:43;;;;;;;8.57;1.40;;;20.70;41.00;;;;;;11283229;26;20080;-30
2024/04/22 15:12:46;;;;;;;14.10;1.33;;;20.80;40.80;;;;;;11283344;26;20013;-23
2024/04/22 15:17:49;;;;;;;4.20;1.20;;;20.70;41.80;;;;;;11283310;26;20346;-27
2024/04/22 15:22:55;;;;;;;2.53;1.38;;;20.70;41.60;;;;;;11282949;26;20461;-27
2024/04/22 15:27:58;;;;;;;5.20;1.70;;;20.60;38.50;;;;;;11282728;26;19998;-27
2024/04/22 15:33:01;;;;;;;3.85;1.00;;;20.70;42.00;;;;;;11282600;26;19999;-29
2024/04/22 15:38:07;;;;;;;4.15;1.05;;;20.60;39.10;;;;;;11242217;26;20011;-27
2024/04/22 15:43:11;;;;;;;8.75;1.70;;;20.60;40.30;;;;;;11204725;26;20015;-25
2024/04/22 15:48:19;;;;;;;8.43;1.25;;;20.80;44.00;;;;;;11207246;26;20361;-29
2024/04/22 15:53:25;;;;;;;6.22;0.90;;;21.00;44.90;;;;;;11207674;26;19999;-27
2024/04/22 15:58:29;;;;;;;2.58;1.00;;;20.80;45.60;;;;;;11207605;26;20014;-29
2024/04/22 16:03:32;;;;;;;4.97;1.00;;;20.70;46.10;;;;;;11206774;26;20072;-27
2024/04/22 16:08:38;;;;;;;8.38;0.90;;;20.60;46.80;;;;;;11206601;26;20424;-28
2024/04/22 16:13:41;;;;;;;5.85;1.08;;;20.50;46.70;;;;;;11206840;26;20010;-26
2024/04/22 16:18:44;;;;;;;7.85;1.00;;;20.40;47.40;;;;;;11206767;26;20073;-30
2024/04/22 16:23:50;;;;;;;3.15;0.73;;;20.40;47.90;;;;;;11206685;26;20007;-28
2024/04/22 16:28:53;;;;;;;1.17;0.50;;;20.30;48.20;;;;;;11206648;26;20019;-27
2024/04/22 16:33:57;;;;;;;2.03;1.00;;;20.20;48.20;;;;;;11206214;26;20388;-27
2024/04/22 16:39:03;;;;;;;1.50;0.70;;;20.20;48.50;;;;;;11206152;26;20011;-29
2024/04/22 16:44:06;;;;;;;1.67;0.75;;;20.10;48.90;;;;;;11206006;26;19999;-28
2024/04/22 16:49:09;;;;;;;1.60;0.73;;;20.00;48.90;;;;;;11205846;26;20007;-28
2024/04/22 16:54:15;;;;;;;1.90;0.73;;;20.00;49.00;;;;;;11205457;26;20015;-28
2024/04/22 16:59:18;;;;;;;3.63;0.55;;;19.90;49.60;;;;;;11206917;26;20011;-26
2024/04/22 17:04:22;;;;;;;2.85;0.77;;;19.80;49.40;;;;;;11212725;26;19999;-28
2024/04/22 17:09:28;;;;;;;4.15;0.82;;;19.90;49.00;;;;;;11212700;26;20007;-26
2024/04/22 17:14:32;;;;;;;5.82;0.95;;;19.90;48.90;;;;;;11212669;26;19995;-27
2024/04/22 17:19:36;;;;;;;4.57;0.88;;;19.80;48.80;;;;;;11212604;26;20004;-28
2024/04/22 17:24:42;;;;;;;6.63;0.80;;;19.80;49.50;;;;;;11212302;26;20015;-27
2024/04/22 17:29:46;;;;;;;4.45;0.93;;;19.60;50.00;;;;;;11211743;26;20000;-32
2024/04/22 17:34:50;;;;;;;5.90;1.38;;;19.60;50.30;;;;;;11211562;26;20003;-24
2024/04/22 17:39:56;;;;;;;1.60;0.70;;;19.60;49.60;;;;;;11211660;26;20014;-28
2024/04/22 17:44:59;;;;;;;6.38;1.20;;;19.60;49.30;;;;;;11211763;26;20408;-27
2024/04/22 17:50:03;;;;;;;8.15;1.00;;;19.60;49.30;;;;;;11211695;26;20072;-26
2024/04/22 17:55:09;;;;;;;2.47;0.75;;;19.60;49.30;;;;;;11211518;26;20019;-26
2024/04/22 18:00:13;;;;;;;1.38;0.60;;;19.60;49.10;;;;;;11211212;26;20000;-29
2024/04/22 18:05:16;;;;;;;3.58;0.82;;;19.60;49.20;;;;;;11226471;26;20458;-26
2024/04/22 18:10:22;;;;;;;2.67;0.70;;;19.60;49.20;;;;;;11210818;26;20024;-28
2024/04/22 18:15:25;;;;;;;4.00;0.80;;;19.60;49.20;;;;;;11210287;26;20073;-30
2024/04/22 18:20:30;;;;;;;4.47;1.20;;;19.70;49.50;;;;;;11210752;26;20008;-26
2024/04/22 18:25:36;;;;;;;6.20;1.38;;;19.70;50.00;;;;;;11207989;26;20006;-29
2024/04/22 18:30:39;;;;;;;3.65;1.00;;;19.70;49.60;;;;;;11210222;26;20018;-26
2024/04/22 18:35:43;;;;;;;3.58;1.13;;;19.60;49.60;;;;;;11209795;26;20076;-29
2024/04/22 18:40:49;;;;;;;12.10;1.25;;;19.60;49.60;;;;;;11206964;26;20011;-32
2024/04/22 18:45:52;;;;;;;7.10;1.50;;;19.60;50.00;;;;;;11209797;26;20011;-27
2024/04/22 18:50:57;;;;;;;7.18;1.40;;;19.60;50.20;;;;;;11209867;26;20015;-28
2024/04/22 18:56:03;;;;;;;10.43;1.60;;;19.60;50.20;;;;;;11209697;26;20481;-28
2024/04/22 19:01:06;;;;;;;7.85;1.52;;;19.60;50.40;;;;;;11209602;26;20064;-30
2024/04/22 19:06:10;;;;;;;3.90;1.17;;;19.50;50.50;;;;;;11209307;26;20517;-27
2024/04/22 19:11:16;;;;;;;10.25;1.17;;;19.50;50.50;;;;;;11209157;26;20072;-29
2024/04/22 19:16:20;;;;;;;10.48;1.85;;;19.50;50.60;;;;;;11209035;26;20008;-28
2024/04/22 19:21:24;;;;;;;5.13;1.30;;;19.50;51.40;;;;;;11207941;26;20008;-27
2024/04/22 19:26:30;;;;;;;6.85;1.55;;;19.40;50.80;;;;;;11208754;26;20014;-29
2024/04/22 19:31:33;;;;;;;9.35;1.23;;;19.40;50.80;;;;;;11209110;26;20000;-31
2024/04/22 19:36:36;;;;;;;13.85;1.90;;;19.40;51.90;;;;;;11208638;26;20004;-30
2024/04/22 19:41:44;;;;;;;7.35;1.67;;;19.40;51.80;;;;;;11204559;26;20100;-28
2024/04/22 19:46:47;;;;;;;16.92;1.60;;;19.30;51.50;;;;;;11208122;26;20011;-27
2024/04/22 19:51:50;;;;;;;6.30;1.60;;;19.20;51.40;;;;;;11207876;26;20537;-31
2024/04/22 19:56:56;;;;;;;6.03;1.20;;;19.10;51.90;;;;;;11206728;26;20004;-29
2024/04/22 20:01:59;;;;;;;5.55;1.42;;;19.00;52.10;;;;;;11206847;26;20030;-29
2024/04/22 20:07:03;;;;;;;8.73;1.40;;;19.00;52.40;;;;;;11206619;26;20018;-28
2024/04/22 20:12:09;;;;;;;7.15;1.58;;;18.90;52.50;;;;;;11206727;26;20035;-27
2024/04/22 20:17:14;;;;;;;6.93;1.27;;;18.80;52.80;;;;;;11206796;26;20007;-29
2024/04/22 20:22:17;;;;;;;4.63;1.30;;;18.80;52.80;;;;;;11207275;26;20003;-27
2024/04/22 20:27:23;;;;;;;4.10;1.20;;;18.80;53.00;;;;;;11206765;26;20355;-32
2024/04/22 20:32:27;;;;;;;7.10;1.30;;;18.70;53.10;;;;;;11206736;26;19999;-28
2024/04/22 20:37:30;;;;;;;3.42;1.15;;;18.70;53.30;;;;;;11213287;26;20010;-30
2024/04/22 20:42:36;;;;;;;4.57;1.20;;;18.70;53.40;;;;;;11213852;26;20442;-27
2024/04/22 20:47:41;;;;;;;4.47;1.10;;;18.60;53.50;;;;;;11213385;26;19995;-29
2024/04/22 20:52:47;;;;;;;2.47;1.13;;;18.60;53.70;;;;;;11213198;26;19999;-29
2024/04/22 20:57:53;;;;;;;1.83;1.10;;;18.60;53.80;;;;;;11212715;26;20014;-29
2024/04/22 21:02:56;;;;;;;2.63;1.05;;;18.50;53.80;;;;;;11211936;26;20043;-28
2024/04/22 21:08:00;;;;;;;2.20;1.10;;;18.50;54.00;;;;;;11212106;26;19999;-28
2024/04/22 21:13:06;;;;;;;4.13;1.10;;;18.40;54.00;;;;;;11212182;26;20011;-27
2024/04/22 21:18:09;;;;;;;1.90;0.90;;;18.40;54.20;;;;;;11212436;26;20015;-27
2024/04/22 21:23:12;;;;;;;1.90;1.33;;;18.40;54.30;;;;;;11212084;26;20011;-29
2024/04/22 21:28:18;;;;;;;2.78;0.90;;;18.30;54.30;;;;;;11212376;26;20000;-26
2024/04/22 21:33:21;;;;;;;1.92;0.75;;;18.30;54.40;;;;;;11212036;26;20008;-27
2024/04/22 21:38:25;;;;;;;2.63;1.10;;;18.30;54.50;;;;;;11211883;26;20424;-29
2024/04/22 21:43:30;;;;;;;2.20;0.95;;;18.30;54.60;;;;;;11211909;26;20014;-28
2024/04/22 21:48:34;;;;;;;2.63;1.00;;;18.20;54.70;;;;;;11211171;26;20013;-27
2024/04/22 21:53:37;;;;;;;1.60;0.90;;;18.20;54.80;;;;;;11211703;26;20543;-28
2024/04/22 21:59:18;;;;;;;2.10;0.85;;;18.20;54.90;;;;;;11210094;26;20007;-29
2024/04/22 22:04:58;;;;;;;2.75;1.20;;;18.20;54.90;;;;;;11210748;26;20469;-26
2024/04/22 22:10:04;;;;;;;1.83;0.95;;;18.10;55.00;;;;;;11210958;26;20479;-27
2024/04/22 22:15:08;;;;;;;1.00;0.70;;;18.10;55.00;;;;;;11211000;26;20003;-27
2024/04/22 22:20:11;;;;;;;1.30;0.90;;;18.10;55.20;;;;;;11211003;26;20000;-31
2024/04/22 22:25:18;;;;;;;1.38;0.85;;;18.00;55.20;;;;;;11210320;26;20010;-26
2024/04/22 22:30:21;;;;;;;1.77;0.90;;;18.00;55.30;;;;;;11210647;26;20008;-27
2024/04/22 22:35:24;;;;;;;1.05;0.90;;;18.00;55.40;;;;;;11210245;26;19999;-27
2024/04/22 22:40:30;;;;;;;1.67;1.00;;;17.90;55.40;;;;;;11209570;26;19999;-26
2024/04/22 22:45:33;;;;;;;1.08;0.75;;;17.90;55.40;;;;;;11209525;26;20468;-29
2024/04/22 22:50:37;;;;;;;1.10;0.70;;;17.90;55.50;;;;;;11209793;26;20076;-26
2024/04/22 22:55:43;;;;;;;1.58;0.80;;;17.80;55.50;;;;;;11209255;26;20000;-28
2024/04/22 23:00:46;;;;;;;2.55;0.90;;;17.80;55.60;;;;;;11209110;26;20014;-27
2024/04/22 23:05:49;;;;;;;1.33;0.68;;;17.80;55.60;;;;;;11209587;26;20464;-28
2024/04/22 23:10:55;;;;;;;0.88;0.80;;;17.80;55.70;;;;;;11209264;26;20427;-28
2024/04/22 23:15:58;;;;;;;1.20;0.80;;;17.70;55.70;;;;;;11208862;26;20469;-29
2024/04/22 23:21:02;;;;;;;1.23;0.82;;;17.70;55.80;;;;;;11208851;26;19999;-29
2024/04/22 23:26:07;;;;;;;1.00;0.65;;;17.70;55.90;;;;;;11208816;26;20003;-29
2024/04/22 23:31:11;;;;;;;1.25;0.70;;;17.70;55.90;;;;;;11208860;26;20000;-27
2024/04/22 23:36:14;;;;;;;1.42;0.77;;;17.60;55.90;;;;;;11208763;26;19995;-26
2024/04/22 23:41:20;;;;;;;1.13;0.70;;;17.60;56.00;;;;;;11208339;26;20014;-28
2024/04/22 23:46:23;;;;;;;1.20;0.80;;;17.60;56.00;;;;;;11208224;26;20013;-28
2024/04/22 23:51:26;;;;;;;1.00;0.60;;;17.50;56.00;;;;;;11208020;26;20069;-29
2024/04/22 23:56:32;;;;;;;1.40;0.60;;;17.50;56.70;;;;;;11207678;26;20411;-28
